Terminal Aerodrome Forecast
Issued by NWS

Home | Current Version | Previous Version | Text Only | Print | Product List | Glossary On
Versions: 1 2 3 4 5 6 7 8 9 10 11 12 13 14 15 16 17 18
000
FTUS45 KRIW 251740
TAFCPR
TAF
KCPR 251740Z 2518/2618 27009KT P6SM SCT035
     FM251900 30014G25KT P6SM FEW080
     FM260000 01012KT P6SM SCT080
     FM260600 04008KT P6SM FEW030 SCT070=

USA.gov is the U.S. government's official web portal to all federal, state and local government web resources and services.